Motte Rimrock Reserve, California Weather observations

Data are for 10 minute period ending at time listed.
 Day   Time   Solar   Ave.   Ave.  Ave.  Vector  Max.   Baro.   Total    
  of    of     Rad.   Air    Rel.  Wind   Wind   Wind  Press.  Precip.   
Year   Day            Temp.  Hum.  Speed  Dir.   Gust                    
2014   (PST)  Kw/m2    F      %     mph   deg.    mph    mb.     in.     
-------------------------------------------------------------------------
 296   22:40   0.00   71.5    34    2.0   183     2.5   948.6    0.00 
 296   22:50   0.00   71.3    33    2.1   185     2.4   948.6    0.00 
 296   23:00   0.00   71.0    33    1.4   228     1.8   948.6    0.00 
 296   23:10   0.00   71.1    32    1.2   248     1.5   948.6    0.00 
 296   23:20   0.00   71.6    30    0.8   248     1.2   948.6    0.00 
 296   23:30   0.00   72.1    29    0.0   246     0.7   948.5    0.00 
 296   23:40   0.00   71.6    30    0.3   230     1.0   948.6    0.00 
 296   23:50   0.00   71.1    31    0.0     0     0.0   948.6    0.00 
 297    0:00   0.00   70.8    30    0.4   168     2.0   948.6    0.00 
 297    0:10   0.00   70.8    31    2.7   174     3.2   948.6    0.00 
 297    0:20   0.00   70.3    31    2.2   181     3.1   948.6    0.00 
 297    0:30   0.00   69.3    32    1.0   184     1.4   948.6    0.00 
 297    0:40   0.00   69.2    33    1.1   184     1.2   948.6    0.00 
 297    0:50   0.00   69.5    32    1.3   184     2.1   948.5    0.00 
 297    1:00   0.00   69.5    32    2.3   185     2.6   948.5    0.00 
 297    1:10   0.00   69.2    32    2.3   186     2.7   948.5    0.00 
 297    1:20   0.00   68.9    33    2.0   166     2.4   948.4    0.00 
 297    1:30   0.00   69.1    33    1.9   125     2.4   948.4    0.00 
 297    1:40   0.00   68.8    33    2.0   129     2.6   948.3    0.00 
 297    1:50   0.00   68.8    32    2.0   126     2.4   948.2    0.00 
 297    2:00   0.00   68.9    31    2.7   125     3.2   948.2    0.00 
 297    2:10   0.00   66.9    33    3.3   148     4.1   948.2    0.00 
 297    2:20   0.00   65.3    36    2.2   202     2.9   948.1    0.00 
 297    2:30   0.00   64.4    39    3.0   224     3.6   948.1    0.00 
 297    2:40   0.00   64.7    39    3.4   238     4.0   948.1    0.00 
 297    2:50   0.00   64.9    38    3.0   234     3.5   948.0    0.00 
 297    3:00   0.00   65.0    36    1.9   216     2.5   948.0    0.00 
 297    3:10   0.00   65.4    35    1.4   225     2.0   948.0    0.00 
 297    3:20   0.00   65.9    33    1.5   204     2.2   947.9    0.00 
 297    3:30   0.00   66.3    30    2.0   150     3.7   948.0    0.00 
 297    3:40   0.00   67.4    25    1.4   119     3.5   948.0    0.00 
 297    3:50   0.00   67.6    24    2.6    93     3.7   948.1    0.00 
 297    4:00   0.00   67.2    24    1.4   108     3.1   948.1    0.00 
 297    4:10   0.00   66.4    25    2.2   146     3.3   948.2    0.00 
 297    4:20   0.00   66.5    26    1.8   138     3.3   948.2    0.00 
 297    4:30   0.00   66.2    27    1.0   169     1.6   948.3    0.00 
 297    4:40   0.00   65.5    28    1.0   165     2.0   948.3    0.00 
 297    4:50   0.00   65.1    28    2.7   145     3.5   948.3    0.00 
 297    5:00   0.00   66.0    26    2.5   161     3.0   948.2    0.00 
 297    5:10   0.00   66.1    27    2.1   171     2.3   948.2    0.00 
 297    5:20   0.00   65.6    28    2.4   185     2.9   948.2    0.00 
 297    5:30   0.00   65.2    28    2.3   182     2.7   948.3    0.00 
 297    5:40   0.00   64.8    28    2.5   179     3.1   948.3    0.00 
 297    5:50   0.00   64.4    28    3.5   170     3.9   948.4    0.00 
 297    6:00   0.00   64.3    28    3.5   158     4.0   948.5    0.00 
 297    6:10   0.00   64.8    27    4.1   142     4.5   948.5    0.00 
 297    6:20   0.01   65.0    26    4.4   142     5.1   948.6    0.00 
 297    6:30   0.03   64.0    27    4.4   140     5.0   948.8    0.00 
 297    6:40   0.06   64.9    27    3.6   156     4.2   948.9    0.00 
 297    6:50   0.09   66.8    25    3.5   163     3.8   949.0    0.00 
 297    7:00   0.12   67.8    24    3.5   147     3.8   949.2    0.00 
 297    7:10   0.16   69.0    24    3.4   149     3.9   949.3    0.00 
 297    7:20   0.19   69.9    23    2.7   141     3.6   949.5    0.00 
 297    7:30   0.22   70.5    22    2.6   132     3.2   949.6    0.00 
 297    7:40   0.26   71.7    21    2.1   148     3.1   949.8    0.00 
 297    7:50   0.29   72.2    21    2.7   165     3.9   949.9    0.00 
 297    8:00   0.32   73.0    21    2.7   180     3.4   949.9    0.00 
 297    8:10   0.35   73.3    21    1.9   186     3.4   949.9    0.00 
 297    8:20   0.38   76.4    18    2.0   118     3.5   950.0    0.00 
 297    8:30   0.41   77.0    17    2.8   109     4.1   950.0    0.00 
 297    8:40   0.45   77.5    17    2.9   142     4.5   950.0    0.00 
 297    8:50   0.47   78.2    17    2.6   145     4.3   949.9    0.00 
 297    9:00   0.50   78.8    17    2.9   172     4.5   949.8    0.00 
 297    9:10   0.53   79.0    18    2.2   192     4.2   949.8    0.00 
 297    9:20   0.55   80.4    17    2.2   198     4.5   949.8    0.00 
 297    9:30   0.57   81.1    16    2.5   172     5.0   949.8    0.00 
 297    9:40   0.60   81.6    16    2.5   196     4.9   949.7    0.00 
 297    9:50   0.62   82.2    16    2.1   202     3.9   949.5    0.00 
 297   10:00   0.64   83.2    15    2.7   155     5.7   949.4    0.00 
 297   10:10   0.65   84.1    14    3.5   165     6.2   949.3    0.00 
 297   10:20   0.67   84.0    15    3.0   174     6.5   949.2    0.00 
 297   10:30   0.68   84.5    14    3.8   171     8.3   949.1    0.00 
 297   10:40   0.69   84.9    14    3.3   187     9.4   949.0    0.00 
 297   10:50   0.70   85.6    14    5.5   193     9.8   948.8    0.00 
 297   11:00   0.72   85.8    14    6.3   158     9.8   948.7    0.00 
 297   11:10   0.72   86.8    14    5.6   181     9.9   948.6    0.00 
 297   11:20   0.73   86.6    14    6.1   172    10.6   948.5    0.00 
 297   11:30   0.73   87.3    14    8.9   160    13.2   948.4    0.00 
 297   11:40   0.73   87.7    13    8.5   171    13.4   948.2    0.00 
 297   11:50   0.73   87.7    13    7.6   175    12.1   948.0    0.00 
 297   12:00   0.73   88.5    13    8.3   197    14.5   947.8    0.00 
 297   12:10   0.72   88.2    13    8.9   214    13.7   947.6    0.00 
 297   12:20   0.71   89.0    12    8.9   197    13.6   947.5    0.00 
 297   12:30   0.70   88.8    13   10.0   190    15.3   947.3    0.00 
 297   12:40   0.69   89.3    12    8.5   192    13.7   947.1    0.00 
 297   12:50   0.68   89.9    12    9.1   190    14.0   947.0    0.00 
 297   13:00   0.67   89.3    12    7.8   218    13.4   946.9    0.00 
 297   13:10   0.65   89.2    12   10.2   189    16.5   946.8    0.00 
 297   13:20   0.64   89.3    13    7.9   208    12.1   946.8    0.00 
 297   13:30   0.61   89.7    12    4.9   192    11.5   946.7    0.00 
 297   13:40   0.59   89.5    13    6.4   276    13.7   946.7    0.00 
 297   13:50   0.54   89.3    12    9.2   281    13.0   946.6    0.00 
 297   14:00   0.54   88.7    12    9.0   284    12.4   946.6    0.00 
 297   14:10   0.52   88.4    12    8.3   289    13.8   946.6    0.00 
 297   14:20   0.49   89.0    12    8.1   282    13.5   946.6    0.00 
 297   14:30   0.46   88.4    12    9.0   298    13.0   946.7    0.00 
 297   14:40   0.43   88.2    13    7.3   269    11.5   946.7    0.00 
 297   14:50   0.40   87.9    13    9.6   287    14.4   946.7    0.00 
 297   15:00   0.38   87.5    13    7.5   285    11.3   946.7    0.00 
 297   15:10   0.35   87.7    13    6.6   279    10.1   946.7    0.00 
 297   15:20   0.32   87.4    13    7.6   232    11.8   946.7    0.00 
 297   15:30   0.29   86.9    14    9.5   196    14.3   946.7    0.00 
 297   15:40   0.26   85.8    15   11.2   205    16.0   946.7    0.00 
 297   15:50   0.22   85.1    15   12.4   211    17.2   946.7    0.00 
 297   16:00   0.19   84.7    15   11.5   214    15.5   946.7    0.00 
 297   16:10   0.16   84.3    16   10.7   220    14.8   946.8    0.00 
 297   16:20   0.12   83.4    18   11.6   218    15.6   946.9    0.00 
 297   16:30   0.09   82.9    19    9.3   218    12.7   947.0    0.00 
 297   16:40   0.07   82.2    20    8.3   215    13.4   947.1    0.00 
 297   16:50   0.04   81.6    21    6.7   207     9.7   947.2    0.00 
 297   17:00   0.02   80.6    21    4.8   189     6.5   947.3    0.00 
 297   17:10   0.01   79.4    22    3.8   172     5.2   947.4    0.00 
 297   17:20   0.01   78.9    23    3.3   154     4.5   947.5    0.00 
 297   17:30   0.00   78.6    24    4.3    42     6.3   947.8    0.00 
 297   17:40   0.00   78.1    24    3.7    52     6.4   947.9    0.00 
 297   17:50   0.00   77.4    24    2.9    38     5.0   948.1    0.00 
 297   18:00   0.00   77.1    24    3.4    52     6.1   948.2    0.00 
 297   18:10   0.00   76.1    24    3.6    87     4.9   948.4    0.00 
 297   18:20   0.00   75.4    24    3.6    85     5.2   948.5    0.00 
 297   18:30   0.00   75.4    22    4.3    14     6.6   948.6    0.00 
 297   18:40   0.00   75.3    19    5.6     6     7.0   948.7    0.00 
 297   18:50   0.00   74.8    17    5.8   351     7.2   948.8    0.00 
 297   19:00   0.00   74.5    17    6.2   350     7.2   948.8    0.00 
 297   19:10   0.00   74.3    17    7.1     1     8.5   948.8    0.00 
 297   19:20   0.00   74.7    17    4.4     9     6.0   948.9    0.00 
 297   19:30   0.00   74.8    17    5.5    26     7.1   948.9    0.00 
 297   19:40   0.00   74.6    18    5.0     6     7.2   949.0    0.00 
 297   19:50   0.00   72.7    18    4.5   340     5.5   949.1    0.00 
 297   20:00   0.00   72.9    18    3.3     4     4.5   949.2    0.00 
 297   20:10   0.00   73.8    16    3.3   347     4.2   949.3    0.00 
 297   20:20   0.00   73.3    17    1.7   308     2.9   949.4    0.00 
 297   20:30   0.00   73.7    16    3.6   334     5.2   949.4    0.00 
 297   20:40   0.00   73.7    16    2.5   360     5.0   949.5    0.00 
 297   20:50   0.00   73.9    16    0.7    84     2.9   949.6    0.00 
 297   21:00   0.00   73.5    17    1.9   118     3.2   949.6    0.00 
 297   21:10   0.00   72.7    18    2.2   143     4.8   949.6    0.00 
 297   21:20   0.00   71.8    20    4.8   138     6.5   949.8    0.00 
 297   21:30   0.00   70.2    21    5.4   143     7.1   949.8    0.00 
 297   21:40   0.00   70.2    21    5.1   146     6.8   949.9    0.00 
 297   21:50   0.00   70.5    22    4.7   145     5.8   949.9    0.00 
 297   22:00   0.00   70.5    22    4.6   137     6.6   949.9    0.00 
 297   22:10   0.00   69.9    22    4.0   140     5.1   950.0    0.00 
 297   22:20   0.00   70.3    21    3.8   134     4.4   950.0    0.00 
 297   22:30   0.00   70.5    21    4.8   130     5.3   950.0    0.00 

Return to Motte Rimrock Reserve graphs page.


Western Regional Climate Center,wrcc@dri.edu